createdAt,value
2022-11-08T00:00:57.194Z,5.05
2022-11-08T00:02:01.084Z,6.50
2022-11-08T00:03:05.014Z,6.15
2022-11-08T00:04:13.431Z,6.47
2022-11-08T00:05:36.153Z,6.35
2022-11-08T00:07:00.403Z,7.55
2022-11-08T00:08:23.968Z,6.50
2022-11-08T00:09:47.405Z,5.10
2022-11-08T00:11:09.738Z,6.30
2022-11-08T00:12:32.936Z,5.53
2022-11-08T00:13:55.424Z,6.03
2022-11-08T00:14:59.532Z,6.72
2022-11-08T00:16:03.454Z,5.97
2022-11-08T00:17:07.368Z,6.50
2022-11-08T00:18:11.060Z,7.43
2022-11-08T00:19:14.800Z,6.35
2022-11-08T00:20:18.623Z,7.63
2022-11-08T00:21:22.268Z,6.18
2022-11-08T00:22:26.160Z,7.60
2022-11-08T00:23:30.618Z,7.70
2022-11-08T00:24:35.824Z,6.68
2022-11-08T00:25:39.649Z,7.53
2022-11-08T00:26:43.319Z,6.53
2022-11-08T00:27:51.171Z,7.45
2022-11-08T00:28:54.917Z,6.97
2022-11-08T00:29:58.595Z,6.05
2022-11-08T00:31:06.959Z,5.97
2022-11-08T00:32:21.355Z,7.30
2022-11-08T00:33:24.934Z,6.93
2022-11-08T00:34:28.898Z,6.50
2022-11-08T00:35:32.774Z,5.88
2022-11-08T00:36:36.593Z,7.32
2022-11-08T00:37:40.342Z,6.60
2022-11-08T00:38:44.728Z,7.70
2022-11-08T00:39:49.184Z,6.63
2022-11-08T00:40:53.075Z,6.80
2022-11-08T00:41:57.208Z,8.07
2022-11-08T00:43:00.949Z,6.53
2022-11-08T00:44:05.211Z,5.88
2022-11-08T00:45:09.910Z,7.25
2022-11-08T00:46:13.464Z,8.07
2022-11-08T00:47:17.355Z,7.00
2022-11-08T00:48:21.055Z,7.43
2022-11-08T00:49:24.924Z,6.82
2022-11-08T00:50:28.902Z,5.85
2022-11-08T00:51:33.219Z,6.82
2022-11-08T00:52:37.072Z,6.60
2022-11-08T00:53:41.806Z,5.47
2022-11-08T00:54:46.142Z,5.75
2022-11-08T00:55:59.017Z,7.30
2022-11-08T00:57:03.048Z,7.72
2022-11-08T00:58:07.239Z,6.88
2022-11-08T00:59:13.141Z,6.70
2022-11-08T01:00:20.341Z,7.47
2022-11-08T01:01:25.425Z,6.55
2022-11-08T01:02:29.559Z,6.25
2022-11-08T01:03:33.649Z,5.82
2022-11-08T01:04:37.420Z,7.18
2022-11-08T01:05:41.762Z,5.75
2022-11-08T01:06:46.866Z,7.72
2022-11-08T01:07:50.555Z,6.95
2022-11-08T01:08:56.217Z,6.85
2022-11-08T01:09:59.946Z,7.75
2022-11-08T01:11:08.856Z,6.88
2022-11-08T01:12:13.453Z,7.25
2022-11-08T01:13:21.540Z,7.60
2022-11-08T01:14:25.988Z,7.13
2022-11-08T01:15:40.769Z,7.18
2022-11-08T01:16:45.399Z,7.18
2022-11-08T01:17:50.584Z,7.07
2022-11-08T01:18:57.289Z,6.40
2022-11-08T01:20:01.189Z,6.70
2022-11-08T01:21:06.233Z,5.88
2022-11-08T01:22:10.070Z,6.75
2022-11-08T01:23:15.687Z,7.82
2022-11-08T01:24:21.624Z,7.80
2022-11-08T01:25:25.822Z,5.97
2022-11-08T01:26:31.090Z,6.47
2022-11-08T01:27:34.958Z,7.00
2022-11-08T01:28:40.084Z,5.85
2022-11-08T01:29:44.258Z,7.60
2022-11-08T01:30:48.292Z,6.65
2022-11-08T01:31:52.080Z,7.75
2022-11-08T01:32:56.213Z,8.25
2022-11-08T01:34:01.991Z,7.28
2022-11-08T01:35:06.581Z,7.20
2022-11-08T01:36:16.784Z,6.78
2022-11-08T01:37:20.870Z,6.30
2022-11-08T01:38:25.271Z,6.40
2022-11-08T01:39:33.270Z,6.57
2022-11-08T01:40:48.395Z,6.53
2022-11-08T01:41:52.704Z,6.55
2022-11-08T01:42:57.504Z,7.85
2022-11-08T01:44:01.343Z,6.43
2022-11-08T01:45:11.923Z,6.85
2022-11-08T01:46:39.771Z,5.90
2022-11-08T01:47:43.734Z,6.50
2022-11-08T01:49:19.084Z,6.60
2022-11-08T01:50:22.970Z,7.07
2022-11-08T01:51:36.440Z,6.18
2022-11-08T01:52:54.713Z,5.97
2022-11-08T01:54:01.834Z,5.68
2022-11-08T01:55:14.686Z,4.85
2022-11-08T01:56:21.023Z,6.57
2022-11-08T01:57:44.990Z,6.57
2022-11-08T01:58:54.392Z,6.55
2022-11-08T02:00:03.943Z,6.55
2022-11-08T02:01:08.277Z,5.57
2022-11-08T02:02:13.457Z,6.15
2022-11-08T02:03:20.322Z,6.25
2022-11-08T02:04:24.775Z,7.10
2022-11-08T02:05:31.496Z,5.93
2022-11-08T02:06:39.441Z,5.75
2022-11-08T02:07:44.112Z,6.30
2022-11-08T02:08:48.224Z,7.22
2022-11-08T02:09:52.116Z,7.53
2022-11-08T02:10:56.121Z,6.15
2022-11-08T02:12:00.216Z,6.05
2022-11-08T02:13:14.239Z,6.35
2022-11-08T02:14:18.775Z,7.03
2022-11-08T02:15:25.970Z,6.05
2022-11-08T02:16:29.698Z,6.93
2022-11-08T02:17:33.541Z,5.30
2022-11-08T02:18:38.390Z,6.32
2022-11-08T02:19:49.966Z,6.63
2022-11-08T02:21:15.367Z,5.05
2022-11-08T02:22:50.421Z,5.88
2022-11-08T02:24:07.198Z,5.70
2022-11-08T02:25:12.218Z,7.30
2022-11-08T02:26:20.684Z,5.97
2022-11-08T02:27:26.026Z,4.78
2022-11-08T02:28:30.030Z,5.38
2022-11-08T02:29:36.493Z,5.63
2022-11-08T02:30:41.005Z,6.93
2022-11-08T02:31:44.924Z,7.70
2022-11-08T02:32:49.144Z,5.05
2022-11-08T02:33:53.559Z,5.13
2022-11-08T02:34:59.625Z,6.13
2022-11-08T02:36:05.273Z,6.20
2022-11-08T02:37:10.515Z,5.53
2022-11-08T02:38:14.916Z,6.07
2022-11-08T02:39:19.503Z,5.13
2022-11-08T02:40:23.373Z,6.43
2022-11-08T02:41:27.811Z,4.90
2022-11-08T02:42:31.918Z,6.45
2022-11-08T02:43:35.629Z,5.90
2022-11-08T02:44:41.798Z,4.75
2022-11-08T02:45:46.431Z,4.90
2022-11-08T02:46:50.159Z,6.13
2022-11-08T02:47:54.460Z,5.28
2022-11-08T02:48:58.315Z,7.00
2022-11-08T02:50:07.730Z,4.80
2022-11-08T02:51:11.573Z,5.47
2022-11-08T02:52:18.427Z,6.78
2022-11-08T02:53:25.376Z,5.25
2022-11-08T02:54:31.448Z,5.78
2022-11-08T02:55:37.005Z,5.15
2022-11-08T02:56:41.388Z,5.80
2022-11-08T02:57:46.596Z,6.38
2022-11-08T02:58:52.178Z,5.97
2022-11-08T02:59:57.414Z,5.88
2022-11-08T03:01:02.653Z,5.03
2022-11-08T03:02:08.843Z,5.80
2022-11-08T03:03:13.053Z,5.93
2022-11-08T03:04:17.060Z,5.07
2022-11-08T03:05:21.927Z,4.80
2022-11-08T03:06:26.449Z,5.10
2022-11-08T03:07:30.910Z,5.45
2022-11-08T03:08:35.601Z,5.65
2022-11-08T03:09:39.879Z,6.15
2022-11-08T03:10:44.228Z,5.38
2022-11-08T03:11:48.243Z,5.18
2022-11-08T03:13:04.717Z,4.53
2022-11-08T03:14:09.673Z,4.47
2022-11-08T03:15:15.332Z,4.80
2022-11-08T03:16:19.135Z,5.20
2022-11-08T03:17:23.240Z,5.28
2022-11-08T03:18:27.288Z,4.68
2022-11-08T03:19:31.186Z,5.15
2022-11-08T03:20:36.157Z,6.22
2022-11-08T03:21:40.211Z,5.95
2022-11-08T03:22:45.029Z,5.32
2022-11-08T03:23:49.135Z,6.03
2022-11-08T03:24:53.845Z,5.43
2022-11-08T03:26:01.234Z,5.22
2022-11-08T03:27:06.335Z,5.63
2022-11-08T03:28:11.055Z,5.07
2022-11-08T03:29:14.834Z,6.53
2022-11-08T03:30:18.948Z,4.93
2022-11-08T03:31:23.786Z,6.32
2022-11-08T03:32:28.540Z,5.10
2022-11-08T03:33:32.252Z,5.32
2022-11-08T03:34:36.817Z,4.65
2022-11-08T03:35:41.029Z,4.65
2022-11-08T03:36:45.680Z,4.82
2022-11-08T03:37:57.779Z,4.80
2022-11-08T03:39:02.082Z,4.85
2022-11-08T03:40:06.961Z,5.47
2022-11-08T03:41:11.194Z,5.35
2022-11-08T03:42:16.124Z,5.10
2022-11-08T03:43:20.880Z,5.35
2022-11-08T03:44:25.719Z,4.75
2022-11-08T03:45:29.914Z,5.38
2022-11-08T03:46:33.831Z,4.53
2022-11-08T03:47:44.483Z,5.55
2022-11-08T03:48:48.599Z,6.32
2022-11-08T03:49:53.210Z,5.18
2022-11-08T03:50:57.179Z,6.45
2022-11-08T03:52:01.630Z,5.95
2022-11-08T03:53:05.577Z,4.85
2022-11-08T03:54:11.042Z,6.15
2022-11-08T03:55:17.280Z,6.05
2022-11-08T03:56:22.186Z,5.75
2022-11-08T03:57:26.254Z,5.72
2022-11-08T03:58:30.345Z,6.53
2022-11-08T03:59:34.333Z,6.30
2022-11-08T04:00:38.313Z,5.22
2022-11-08T04:01:42.789Z,5.80
2022-11-08T04:02:48.124Z,5.35
2022-11-08T04:03:52.307Z,5.13
2022-11-08T04:04:56.474Z,4.38
2022-11-08T04:06:02.537Z,4.38
2022-11-08T04:07:06.451Z,5.30
2022-11-08T04:08:10.651Z,5.78
2022-11-08T04:09:18.978Z,5.50
2022-11-08T04:10:25.248Z,5.40
2022-11-08T04:11:47.735Z,4.80
2022-11-08T04:13:10.211Z,5.47
2022-11-08T04:14:32.650Z,5.25
2022-11-08T04:15:36.537Z,5.68
2022-11-08T04:16:40.210Z,5.68
2022-11-08T04:18:09.065Z,4.88
2022-11-08T04:19:31.290Z,5.57
2022-11-08T04:21:01.935Z,4.57
2022-11-08T04:22:07.928Z,5.20
2022-11-08T04:23:11.768Z,5.05
2022-11-08T04:24:15.739Z,4.55
2022-11-08T04:25:19.348Z,6.22
2022-11-08T04:26:23.455Z,5.07
2022-11-08T04:27:27.584Z,5.93
2022-11-08T04:28:36.476Z,5.57
2022-11-08T04:29:40.327Z,5.15
2022-11-08T04:30:44.546Z,6.00
2022-11-08T04:31:48.424Z,4.68
2022-11-08T04:32:52.450Z,5.97
2022-11-08T04:33:57.081Z,5.72
2022-11-08T04:35:00.758Z,4.85
2022-11-08T04:36:09.199Z,5.05
2022-11-08T04:37:13.348Z,4.65
2022-11-08T04:38:18.863Z,5.40
2022-11-08T04:39:23.377Z,5.47
2022-11-08T04:40:30.640Z,5.18
2022-11-08T04:41:35.448Z,5.53
2022-11-08T04:42:45.341Z,4.68
2022-11-08T04:43:50.784Z,5.43
2022-11-08T04:44:55.497Z,6.00
2022-11-08T04:46:10.950Z,5.75
2022-11-08T04:47:14.541Z,5.32
2022-11-08T04:48:19.102Z,5.28
2022-11-08T04:49:23.167Z,5.72
2022-11-08T04:50:27.314Z,6.15
2022-11-08T04:51:34.179Z,4.75
2022-11-08T04:52:38.547Z,4.90
2022-11-08T04:53:43.160Z,5.75
2022-11-08T04:54:47.853Z,4.47
2022-11-08T04:55:52.865Z,5.32
2022-11-08T04:56:57.066Z,4.88
2022-11-08T04:58:00.973Z,5.72
2022-11-08T04:59:09.464Z,4.35
2022-11-08T05:00:17.311Z,5.05
2022-11-08T05:01:30.567Z,5.20
2022-11-08T05:02:37.534Z,4.65
2022-11-08T05:03:42.076Z,5.55
2022-11-08T05:04:46.864Z,4.65
2022-11-08T05:05:50.931Z,4.72
2022-11-08T05:06:55.292Z,5.38
2022-11-08T05:07:59.202Z,4.75
2022-11-08T05:09:03.842Z,4.80
2022-11-08T05:10:08.487Z,4.78
2022-11-08T05:11:19.910Z,5.78
2022-11-08T05:12:24.093Z,4.88
2022-11-08T05:13:27.892Z,5.35
2022-11-08T05:14:32.204Z,6.50
2022-11-08T05:15:37.430Z,4.50
2022-11-08T05:16:41.325Z,4.60
2022-11-08T05:17:45.416Z,4.97
2022-11-08T05:18:50.357Z,5.63
2022-11-08T05:20:12.494Z,5.65
2022-11-08T05:21:38.713Z,4.60
2022-11-08T05:23:01.370Z,4.43
2022-11-08T05:24:08.528Z,4.75
2022-11-08T05:25:12.891Z,5.20
2022-11-08T05:26:20.601Z,4.65
2022-11-08T05:27:25.027Z,5.07
2022-11-08T05:28:29.356Z,5.35
2022-11-08T05:29:34.847Z,5.50
2022-11-08T05:30:41.409Z,5.20
2022-11-08T05:31:45.842Z,4.30
2022-11-08T05:32:53.217Z,4.97
2022-11-08T05:33:57.353Z,5.20
2022-11-08T05:35:02.356Z,5.18
2022-11-08T05:36:13.719Z,5.35
2022-11-08T05:37:19.051Z,5.60
2022-11-08T05:38:23.879Z,4.78
2022-11-08T05:39:32.033Z,5.00
2022-11-08T05:40:36.477Z,5.38
2022-11-08T05:41:40.833Z,4.78
2022-11-08T05:42:44.892Z,4.55
2022-11-08T05:43:52.744Z,5.05
2022-11-08T05:44:58.927Z,5.43
2022-11-08T05:46:03.767Z,5.38
2022-11-08T05:47:07.550Z,5.13
2022-11-08T05:48:11.733Z,5.53
2022-11-08T05:49:15.596Z,5.25
2022-11-08T05:50:19.730Z,5.22
2022-11-08T05:51:23.547Z,5.72
2022-11-08T05:52:27.842Z,5.85
2022-11-08T05:53:32.422Z,4.45
2022-11-08T05:54:36.568Z,5.25
2022-11-08T05:55:40.800Z,5.53
2022-11-08T05:56:44.779Z,5.03
2022-11-08T05:57:49.682Z,3.95
2022-11-08T05:58:54.239Z,6.50
2022-11-08T05:59:58.293Z,4.53
2022-11-08T06:01:03.960Z,5.35
2022-11-08T06:02:08.612Z,5.50
2022-11-08T06:03:12.773Z,4.82
2022-11-08T06:04:16.515Z,5.85
2022-11-08T06:05:20.776Z,5.90
2022-11-08T06:06:24.905Z,4.93
2022-11-08T06:07:29.535Z,5.95
2022-11-08T06:08:33.804Z,5.60
2022-11-08T06:09:37.485Z,5.60
2022-11-08T06:10:41.545Z,4.47
2022-11-08T06:11:45.292Z,4.90
2022-11-08T06:12:48.982Z,5.53
2022-11-08T06:13:54.642Z,5.50
2022-11-08T06:14:58.514Z,5.03
2022-11-08T06:16:08.682Z,5.32
2022-11-08T06:17:12.792Z,5.63
2022-11-08T06:18:17.066Z,4.95
2022-11-08T06:19:21.532Z,4.82
2022-11-08T06:20:26.518Z,5.15
2022-11-08T06:21:30.499Z,5.53
2022-11-08T06:22:36.110Z,4.50
2022-11-08T06:23:42.501Z,4.68
2022-11-08T06:24:46.275Z,4.57
2022-11-08T06:25:50.807Z,5.97
2022-11-08T06:26:54.962Z,5.68
2022-11-08T06:28:01.504Z,5.60
2022-11-08T06:29:07.646Z,5.10
2022-11-08T06:30:13.085Z,5.45
2022-11-08T06:31:17.158Z,5.57
2022-11-08T06:32:22.701Z,5.95
2022-11-08T06:33:27.498Z,5.75
2022-11-08T06:34:31.440Z,5.80
2022-11-08T06:35:37.679Z,5.72
2022-11-08T06:36:42.630Z,6.10
2022-11-08T06:37:47.021Z,5.38
2022-11-08T06:38:56.028Z,5.28
2022-11-08T06:40:00.763Z,5.03
2022-11-08T06:41:05.577Z,5.65
2022-11-08T06:42:11.552Z,5.65
2022-11-08T06:43:19.617Z,6.68
2022-11-08T06:44:24.653Z,5.28
2022-11-08T06:45:29.261Z,5.93
2022-11-08T06:46:34.797Z,4.90
2022-11-08T06:47:38.998Z,4.70
2022-11-08T06:48:43.722Z,6.75
2022-11-08T06:49:49.250Z,4.45
2022-11-08T06:50:53.684Z,6.50
2022-11-08T06:51:57.817Z,6.10
2022-11-08T06:53:08.715Z,5.05
2022-11-08T06:54:17.707Z,5.55
2022-11-08T06:55:22.666Z,5.25
2022-11-08T06:56:27.788Z,4.90
2022-11-08T06:57:31.699Z,6.45
2022-11-08T06:58:36.203Z,4.85
2022-11-08T06:59:43.435Z,4.47
2022-11-08T07:00:50.987Z,4.97
2022-11-08T07:01:58.853Z,4.47
2022-11-08T07:03:05.014Z,5.78
2022-11-08T07:04:08.868Z,5.30
2022-11-08T07:05:16.299Z,4.85
2022-11-08T07:06:21.201Z,5.57
2022-11-08T07:07:28.138Z,5.70
2022-11-08T07:08:34.956Z,4.47
2022-11-08T07:09:39.752Z,4.75
2022-11-08T07:10:45.178Z,4.60
2022-11-08T07:11:50.006Z,5.03
2022-11-08T07:13:12.357Z,4.53
2022-11-08T07:14:20.201Z,4.22
2022-11-08T07:16:49.704Z,5.30
2022-11-08T07:17:55.790Z,4.53
2022-11-08T07:19:01.111Z,4.15
2022-11-08T07:20:06.262Z,4.95
2022-11-08T07:21:10.584Z,4.75
2022-11-08T07:22:15.492Z,4.38
2022-11-08T07:23:20.391Z,5.25
2022-11-08T07:24:24.934Z,5.30
2022-11-08T07:25:31.414Z,4.72
2022-11-08T07:26:35.548Z,4.28
2022-11-08T07:27:41.933Z,4.25
2022-11-08T07:28:46.662Z,4.97
2022-11-08T07:29:51.167Z,4.93
2022-11-08T07:31:01.799Z,4.55
2022-11-08T07:32:09.370Z,3.95
2022-11-08T07:33:16.476Z,4.47
2022-11-08T07:34:20.976Z,4.85
2022-11-08T07:35:28.328Z,4.22
2022-11-08T07:36:32.426Z,4.55
2022-11-08T07:37:36.549Z,4.20
2022-11-08T07:38:41.005Z,4.47
2022-11-08T07:39:45.448Z,5.88
2022-11-08T07:40:50.179Z,4.85
2022-11-08T07:41:54.495Z,4.63
2022-11-08T07:43:15.973Z,5.90
2022-11-08T07:44:20.232Z,4.75
2022-11-08T07:45:25.120Z,4.25
2022-11-08T07:46:29.048Z,4.63
2022-11-08T07:47:33.980Z,5.30
2022-11-08T07:48:37.840Z,5.80
2022-11-08T07:49:42.037Z,5.13
2022-11-08T07:50:47.965Z,4.35
2022-11-08T07:51:52.710Z,4.47
2022-11-08T07:52:57.159Z,5.93
2022-11-08T07:54:03.162Z,5.80
2022-11-08T07:55:09.119Z,4.28
2022-11-08T07:56:13.317Z,6.00
2022-11-08T07:57:17.577Z,5.18
2022-11-08T07:58:21.622Z,5.63
2022-11-08T07:59:25.950Z,4.85
2022-11-08T08:00:37.504Z,4.50
2022-11-08T08:01:41.578Z,4.03
2022-11-08T08:02:45.995Z,3.83
2022-11-08T08:03:49.883Z,3.35
2022-11-08T08:04:54.126Z,3.83
2022-11-08T08:06:01.044Z,3.67
2022-11-08T08:07:05.889Z,4.20
2022-11-08T08:08:12.673Z,3.97
2022-11-08T08:09:16.478Z,3.95
2022-11-08T08:10:20.342Z,4.13
2022-11-08T08:11:28.225Z,3.40
2022-11-08T08:12:34.646Z,4.15
2022-11-08T08:13:38.336Z,4.05
2022-11-08T08:14:42.447Z,2.97
2022-11-08T08:15:46.383Z,4.50
2022-11-08T08:16:51.310Z,3.67
2022-11-08T08:17:56.532Z,4.55
2022-11-08T08:19:00.259Z,4.40
2022-11-08T08:20:04.645Z,4.60
2022-11-08T08:21:09.055Z,4.40
2022-11-08T08:22:13.393Z,4.35
2022-11-08T08:23:17.879Z,4.05
2022-11-08T08:24:22.527Z,4.30
2022-11-08T08:25:29.351Z,3.70
2022-11-08T08:26:34.135Z,3.70
2022-11-08T08:27:38.178Z,3.08
2022-11-08T08:28:43.187Z,3.38
2022-11-08T08:29:47.460Z,3.97
2022-11-08T08:30:51.511Z,4.25
2022-11-08T08:31:56.749Z,3.67
2022-11-08T08:33:27.447Z,4.13
2022-11-08T08:34:32.635Z,4.30
2022-11-08T08:35:38.792Z,3.65
2022-11-08T08:36:43.407Z,3.22
2022-11-08T08:37:47.588Z,3.78
2022-11-08T08:38:52.099Z,3.67
2022-11-08T08:39:56.378Z,2.95
2022-11-08T08:41:02.276Z,3.50
2022-11-08T08:42:07.096Z,3.92
2022-11-08T08:43:11.710Z,3.92
2022-11-08T08:44:16.252Z,3.50
2022-11-08T08:45:20.803Z,3.33
2022-11-08T08:46:25.359Z,3.38
2022-11-08T08:47:30.576Z,3.05
2022-11-08T08:48:36.117Z,3.35
2022-11-08T08:49:41.108Z,3.30
2022-11-08T08:50:45.505Z,3.25
2022-11-08T08:51:52.714Z,4.50
2022-11-08T08:53:02.313Z,3.03
2022-11-08T08:54:06.961Z,3.15
2022-11-08T08:55:10.796Z,3.47
2022-11-08T08:56:14.528Z,3.17
2022-11-08T08:57:18.636Z,3.60
2022-11-08T08:58:23.573Z,3.10
2022-11-08T09:02:21.789Z,2.80
2022-11-08T09:03:25.953Z,3.50
2022-11-08T09:04:30.240Z,3.42
2022-11-08T09:05:36.105Z,3.38
2022-11-08T09:06:40.267Z,3.10
2022-11-08T09:07:44.692Z,2.83
2022-11-08T09:08:48.607Z,2.97
2022-11-08T09:09:53.923Z,3.58
2022-11-08T09:11:01.314Z,3.15
2022-11-08T09:12:11.825Z,4.15
2022-11-08T09:13:19.499Z,4.07
2022-11-08T09:14:24.228Z,3.42
2022-11-08T09:15:28.286Z,4.68
2022-11-08T09:16:34.523Z,3.80
2022-11-08T09:17:38.767Z,3.60
2022-11-08T09:18:42.719Z,3.30
2022-11-08T09:19:47.609Z,3.35
2022-11-08T09:20:52.997Z,3.40
2022-11-08T09:21:57.249Z,2.95
2022-11-08T09:23:04.954Z,3.42
2022-11-08T09:24:08.907Z,3.30
2022-11-08T09:25:12.575Z,2.50
2022-11-08T09:26:16.837Z,2.97
2022-11-08T09:27:21.286Z,3.30
2022-11-08T09:28:30.926Z,3.53
2022-11-08T09:29:35.386Z,3.75
2022-11-08T09:30:39.878Z,3.03
2022-11-08T09:31:45.839Z,2.60
2022-11-08T09:33:00.728Z,3.63
2022-11-08T09:34:06.178Z,4.25
2022-11-08T09:35:10.817Z,2.70
2022-11-08T09:36:15.302Z,3.17
2022-11-08T09:37:19.424Z,3.63
2022-11-08T09:38:23.864Z,2.78
2022-11-08T09:39:29.159Z,2.33
2022-11-08T09:40:51.653Z,2.80
2022-11-08T09:42:54.928Z,3.00
2022-11-08T09:44:17.318Z,2.42
2022-11-08T09:45:43.574Z,3.55
2022-11-08T09:46:57.889Z,3.03
2022-11-08T09:48:16.322Z,2.65
2022-11-08T09:49:55.075Z,2.72
2022-11-08T09:51:13.822Z,3.60
2022-11-08T09:52:26.193Z,2.60
2022-11-08T09:53:55.750Z,2.80
2022-11-08T09:55:59.327Z,4.13
2022-11-08T09:57:06.391Z,2.78
2022-11-08T09:58:37.420Z,2.95
2022-11-08T09:59:53.468Z,3.13
2022-11-08T10:00:58.910Z,2.72
2022-11-08T10:02:04.298Z,3.15
2022-11-08T10:03:17.452Z,3.13
2022-11-08T10:04:30.275Z,2.85
2022-11-08T10:05:47.476Z,3.00
2022-11-08T10:07:17.373Z,2.85
2022-11-08T10:09:05.434Z,3.50
2022-11-08T10:10:39.472Z,2.60
2022-11-08T10:12:41.969Z,2.47
2022-11-08T10:13:57.352Z,2.90
2022-11-08T10:15:32.696Z,2.72
2022-11-08T10:17:34.860Z,2.88
2022-11-08T10:18:49.637Z,3.30
2022-11-08T10:20:17.569Z,2.58
2022-11-08T10:21:53.173Z,3.00
2022-11-08T10:23:21.896Z,3.10
2022-11-08T10:25:20.101Z,2.80
2022-11-08T10:26:35.781Z,2.67
2022-11-08T10:27:44.138Z,2.97
2022-11-08T10:28:58.687Z,2.40
2022-11-08T10:30:17.071Z,2.33
2022-11-08T10:31:22.679Z,2.13
2022-11-08T10:32:28.986Z,2.03
2022-11-08T10:33:51.596Z,3.13
2022-11-08T10:35:26.644Z,2.22
2022-11-08T10:36:48.442Z,2.22
2022-11-08T10:37:56.399Z,2.35
2022-11-08T10:39:25.292Z,2.83
2022-11-08T10:40:46.115Z,1.70
2022-11-08T10:42:20.269Z,2.40
2022-11-08T10:44:23.719Z,2.03
2022-11-08T10:45:28.620Z,1.38
2022-11-08T10:46:49.908Z,1.92
2022-11-08T10:47:55.433Z,2.05
2022-11-08T10:49:24.422Z,1.92
2022-11-08T10:50:44.774Z,1.30
2022-11-08T10:51:56.538Z,1.60
2022-11-08T10:53:06.242Z,1.90
2022-11-08T10:54:52.534Z,2.20
2022-11-08T10:56:04.461Z,1.77
2022-11-08T10:57:12.101Z,2.45
2022-11-08T10:58:43.075Z,1.45
2022-11-08T10:59:47.728Z,1.67
2022-11-08T11:01:17.598Z,1.65
2022-11-08T11:02:35.278Z,1.67
2022-11-08T11:03:39.863Z,1.23
2022-11-08T11:04:44.179Z,1.13
2022-11-08T11:06:04.408Z,1.63
2022-11-08T11:07:35.149Z,1.55
2022-11-08T11:08:56.449Z,1.15
2022-11-08T11:10:22.782Z,1.10
2022-11-08T11:11:32.309Z,1.40
2022-11-08T11:12:36.977Z,1.20
2022-11-08T11:13:41.279Z,1.30
2022-11-08T11:14:45.879Z,1.30
2022-11-08T11:16:06.041Z,1.60
2022-11-08T11:17:19.345Z,1.00
2022-11-08T11:18:34.138Z,1.83
2022-11-08T11:19:38.605Z,1.42
2022-11-08T11:20:43.967Z,1.60
2022-11-08T11:22:05.037Z,1.40
2022-11-08T11:23:12.254Z,1.13
2022-11-08T11:24:21.485Z,1.42
2022-11-08T11:25:26.541Z,1.25
2022-11-08T11:26:41.492Z,1.30
2022-11-08T11:27:57.053Z,1.40
2022-11-08T11:29:07.350Z,1.55
2022-11-08T11:30:35.810Z,1.25
2022-11-08T11:31:44.896Z,1.73
2022-11-08T11:33:26.189Z,1.70
2022-11-08T11:35:07.658Z,2.03
2022-11-08T11:36:20.856Z,1.77
2022-11-08T11:37:33.420Z,0.90
2022-11-08T11:39:11.344Z,1.40
2022-11-08T11:40:42.701Z,1.30
2022-11-08T11:42:39.037Z,1.73
2022-11-08T11:44:02.778Z,1.85
2022-11-08T11:45:06.582Z,1.25
2022-11-08T11:47:00.922Z,1.50
2022-11-08T11:48:17.962Z,1.60
2022-11-08T11:49:25.773Z,1.40
2022-11-08T11:50:40.318Z,1.13
2022-11-08T11:51:44.785Z,1.45
2022-11-08T11:52:52.310Z,1.42
2022-11-08T11:54:04.448Z,0.95
2022-11-08T11:55:14.964Z,0.75
2022-11-08T11:56:42.804Z,1.15
2022-11-08T11:58:40.674Z,1.20
2022-11-08T12:00:08.375Z,1.85
2022-11-08T12:01:39.933Z,1.08
2022-11-08T12:03:19.986Z,1.10
2022-11-08T12:04:55.514Z,1.05
2022-11-08T12:06:45.566Z,1.00
2022-11-08T12:08:25.406Z,1.52
2022-11-08T12:09:55.793Z,1.23
2022-11-08T12:11:46.711Z,1.80
2022-11-08T12:13:21.419Z,1.33
2022-11-08T12:15:42.434Z,1.30
2022-11-08T12:17:51.605Z,1.38
2022-11-08T12:19:29.880Z,1.23
2022-11-08T12:21:04.376Z,1.20
2022-11-08T12:22:48.221Z,1.23
2022-11-08T12:24:18.342Z,1.17
2022-11-08T12:26:12.153Z,1.30
2022-11-08T12:27:43.054Z,1.08
2022-11-08T12:28:53.028Z,1.20
2022-11-08T12:30:21.668Z,1.10
2022-11-08T12:31:50.732Z,1.13
2022-11-08T12:33:21.113Z,1.05
2022-11-08T12:34:54.960Z,1.13
2022-11-08T12:36:32.969Z,1.55
2022-11-08T12:38:00.987Z,0.80
2022-11-08T12:39:41.338Z,1.42
2022-11-08T12:41:03.617Z,1.35
2022-11-08T12:42:43.059Z,0.98
2022-11-08T12:44:22.039Z,1.00
2022-11-08T12:45:53.968Z,0.93
2022-11-08T12:47:10.553Z,0.80
2022-11-08T12:48:30.684Z,0.82
2022-11-08T12:50:01.425Z,1.08
2022-11-08T12:51:28.706Z,1.27
2022-11-08T12:53:34.685Z,1.08
2022-11-08T12:54:57.753Z,1.27
2022-11-08T12:56:05.785Z,0.93
2022-11-08T12:57:17.060Z,1.38
2022-11-08T12:58:47.493Z,1.33
2022-11-08T13:00:07.122Z,1.10
2022-11-08T13:01:19.334Z,0.98
2022-11-08T13:02:33.513Z,1.00
2022-11-08T13:03:44.332Z,0.82
2022-11-08T13:05:06.395Z,1.17
2022-11-08T13:06:18.617Z,0.90
2022-11-08T13:07:31.918Z,0.93
2022-11-08T13:08:51.476Z,1.33
2022-11-08T13:10:13.006Z,0.75
2022-11-08T13:11:41.873Z,0.73
2022-11-08T13:13:37.225Z,0.95
2022-11-08T13:14:42.403Z,0.75
2022-11-08T13:16:15.744Z,1.02
2022-11-08T13:17:26.836Z,1.02
2022-11-08T13:18:43.085Z,0.90
2022-11-08T13:19:49.641Z,1.00
2022-11-08T13:20:54.616Z,0.77
2022-11-08T13:21:58.846Z,0.93
2022-11-08T13:23:13.473Z,0.85
2022-11-08T13:24:43.318Z,0.95
2022-11-08T13:25:45.402Z,0.82
2022-11-08T13:26:50.278Z,1.35
2022-11-08T13:27:56.787Z,0.93
2022-11-08T13:29:19.050Z,1.02
2022-11-08T13:30:23.477Z,0.90
2022-11-08T13:31:58.853Z,0.90
2022-11-08T13:33:30.760Z,1.20
2022-11-08T13:35:09.710Z,1.15
2022-11-08T13:37:17.262Z,1.08
2022-11-08T13:38:45.676Z,1.13
2022-11-08T13:40:31.008Z,0.93
2022-11-08T13:42:25.227Z,1.17
2022-11-08T13:43:35.048Z,0.95
2022-11-08T13:44:58.571Z,0.70
2022-11-08T13:46:26.007Z,0.88
2022-11-08T13:47:36.936Z,1.08
2022-11-08T13:48:43.774Z,0.80
2022-11-08T13:49:48.015Z,1.20
2022-11-08T13:50:56.078Z,0.80
2022-11-08T13:52:47.713Z,1.20
2022-11-08T13:54:22.206Z,0.75
2022-11-08T13:55:55.951Z,1.17
2022-11-08T13:57:02.989Z,1.20
2022-11-08T13:58:40.260Z,0.90
2022-11-08T13:59:54.432Z,1.27
2022-11-08T14:01:00.692Z,1.05
2022-11-08T14:02:26.292Z,1.50
2022-11-08T14:03:33.142Z,1.65
2022-11-08T14:04:41.530Z,0.98
2022-11-08T14:05:49.668Z,1.77
2022-11-08T14:07:24.967Z,1.00
2022-11-08T14:09:01.852Z,1.45
2022-11-08T14:11:08.470Z,1.15
2022-11-08T14:12:50.451Z,0.82
2022-11-08T14:14:20.819Z,0.85
2022-11-08T14:15:51.928Z,1.15
2022-11-08T14:17:30.963Z,1.52
2022-11-08T14:18:39.393Z,1.58
2022-11-08T14:19:48.376Z,1.13
2022-11-08T14:20:55.177Z,0.95
2022-11-08T14:22:02.130Z,1.05
2022-11-08T14:23:21.303Z,1.10
2022-11-08T14:24:34.230Z,0.88
2022-11-08T14:25:40.661Z,1.02
2022-11-08T14:26:48.369Z,1.30
2022-11-08T14:27:52.753Z,1.10
2022-11-08T14:29:00.620Z,1.67
2022-11-08T14:30:26.343Z,1.48
2022-11-08T14:31:35.345Z,2.00
2022-11-08T14:32:39.789Z,1.35
2022-11-08T14:33:43.872Z,1.13
2022-11-08T14:34:47.886Z,1.35
2022-11-08T14:36:14.926Z,1.27
2022-11-08T14:37:27.932Z,1.45
2022-11-08T14:38:45.506Z,1.70
2022-11-08T14:39:51.086Z,1.42
2022-11-08T14:41:00.421Z,0.75
2022-11-08T14:42:19.454Z,1.30
2022-11-08T14:43:28.184Z,0.90
2022-11-08T14:44:32.689Z,1.10
2022-11-08T14:45:44.137Z,1.10
2022-11-08T14:46:49.862Z,1.40
2022-11-08T14:48:05.107Z,1.30
2022-11-08T14:49:23.411Z,0.93
2022-11-08T14:50:35.555Z,1.13
2022-11-08T14:51:41.020Z,1.15
2022-11-08T14:52:46.042Z,1.13
2022-11-08T14:53:56.921Z,1.17
2022-11-08T14:55:14.243Z,1.17
2022-11-08T14:56:26.022Z,0.93
2022-11-08T14:57:35.763Z,1.10
2022-11-08T14:58:40.790Z,1.08
2022-11-08T14:59:46.004Z,1.20
2022-11-08T15:00:50.353Z,1.23
2022-11-08T15:01:54.634Z,1.15
2022-11-08T15:03:05.873Z,1.23
2022-11-08T15:04:18.941Z,0.90
2022-11-08T15:05:38.990Z,1.25
2022-11-08T15:06:54.704Z,1.15
2022-11-08T15:08:00.998Z,1.65
2022-11-08T15:09:08.522Z,1.38
2022-11-08T15:10:13.808Z,1.27
2022-11-08T15:11:38.045Z,1.23
2022-11-08T15:12:44.031Z,0.95
2022-11-08T15:13:52.129Z,1.30
2022-11-08T15:15:01.549Z,1.50
2022-11-08T15:16:09.610Z,1.40
2022-11-08T15:17:39.070Z,1.00
2022-11-08T15:18:45.447Z,1.30
2022-11-08T15:19:50.485Z,1.33
2022-11-08T15:21:03.662Z,1.30
2022-11-08T15:22:34.391Z,1.13
2022-11-08T15:23:42.979Z,1.30
2022-11-08T15:24:48.050Z,1.15
2022-11-08T15:26:01.120Z,1.17
2022-11-08T15:27:11.223Z,0.90
2022-11-08T15:28:26.465Z,1.90
2022-11-08T15:29:49.532Z,1.02
2022-11-08T15:31:03.479Z,1.75
2022-11-08T15:32:20.999Z,1.92
2022-11-08T15:33:40.994Z,1.10
2022-11-08T15:34:47.287Z,0.80
2022-11-08T15:35:52.084Z,2.55
2022-11-08T15:36:56.084Z,1.92
2022-11-08T15:38:20.569Z,1.92
2022-11-08T15:39:44.835Z,1.73
2022-11-08T15:40:52.989Z,2.38
2022-11-08T15:42:13.483Z,1.50
2022-11-08T15:43:32.984Z,1.63
2022-11-08T15:44:58.373Z,2.40
2022-11-08T15:46:05.449Z,1.45
2022-11-08T15:47:44.323Z,1.38
2022-11-08T15:48:58.301Z,1.65
2022-11-08T15:50:02.784Z,1.40
2022-11-08T15:51:06.926Z,1.17
2022-11-08T15:52:10.976Z,1.13
2022-11-08T15:53:15.139Z,1.60
2022-11-08T15:54:21.047Z,1.60